sensor_id;sensor_type;location;lat;lon;timestamp;P1;durP1;ratioP1;P2;durP2;ratioP2
56653;SDS011;45096;52.302;4.634;2024-02-21T00:02:01;21.60;;;5.37;;
56653;SDS011;45096;52.302;4.634;2024-02-21T00:04:27;16.67;;;3.30;;
56653;SDS011;45096;52.302;4.634;2024-02-21T00:06:52;16.20;;;4.38;;
56653;SDS011;45096;52.302;4.634;2024-02-21T00:09:18;19.35;;;4.63;;
56653;SDS011;45096;52.302;4.634;2024-02-21T00:11:43;15.80;;;3.38;;
56653;SDS011;45096;52.302;4.634;2024-02-21T00:14:08;16.88;;;3.50;;
56653;SDS011;45096;52.302;4.634;2024-02-21T00:16:34;12.57;;;5.13;;
56653;SDS011;45096;52.302;4.634;2024-02-21T00:19:00;13.93;;;4.28;;
56653;SDS011;45096;52.302;4.634;2024-02-21T00:21:26;16.35;;;3.70;;
56653;SDS011;45096;52.302;4.634;2024-02-21T00:23:51;10.10;;;3.55;;
56653;SDS011;45096;52.302;4.634;2024-02-21T00:26:17;10.52;;;3.50;;
56653;SDS011;45096;52.302;4.634;2024-02-21T00:28:42;10.93;;;3.60;;
56653;SDS011;45096;52.302;4.634;2024-02-21T00:31:07;16.90;;;3.63;;
56653;SDS011;45096;52.302;4.634;2024-02-21T00:33:33;16.58;;;3.58;;
56653;SDS011;45096;52.302;4.634;2024-02-21T00:36:00;14.82;;;3.38;;
56653;SDS011;45096;52.302;4.634;2024-02-21T00:38:25;10.43;;;3.47;;
56653;SDS011;45096;52.302;4.634;2024-02-21T00:40:50;22.58;;;4.57;;
56653;SDS011;45096;52.302;4.634;2024-02-21T00:43:16;22.77;;;3.92;;
56653;SDS011;45096;52.302;4.634;2024-02-21T00:45:41;17.70;;;3.33;;
56653;SDS011;45096;52.302;4.634;2024-02-21T00:48:07;19.77;;;3.55;;
56653;SDS011;45096;52.302;4.634;2024-02-21T00:50:32;18.40;;;3.90;;
56653;SDS011;45096;52.302;4.634;2024-02-21T00:52:59;18.88;;;4.47;;
56653;SDS011;45096;52.302;4.634;2024-02-21T00:55:24;9.25;;;3.58;;
56653;SDS011;45096;52.302;4.634;2024-02-21T00:57:50;18.58;;;4.30;;
56653;SDS011;45096;52.302;4.634;2024-02-21T01:00:15;19.17;;;3.53;;
56653;SDS011;45096;52.302;4.634;2024-02-21T01:02:42;13.15;;;3.08;;
56653;SDS011;45096;52.302;4.634;2024-02-21T01:05:07;20.23;;;4.85;;
56653;SDS011;45096;52.302;4.634;2024-02-21T01:07:33;21.38;;;4.57;;
56653;SDS011;45096;52.302;4.634;2024-02-21T01:09:59;18.70;;;5.35;;
56653;SDS011;45096;52.302;4.634;2024-02-21T01:12:25;21.17;;;4.32;;
56653;SDS011;45096;52.302;4.634;2024-02-21T01:14:50;22.08;;;4.90;;
56653;SDS011;45096;52.302;4.634;2024-02-21T01:17:15;24.63;;;5.25;;
56653;SDS011;45096;52.302;4.634;2024-02-21T01:19:41;14.55;;;4.45;;
56653;SDS011;45096;52.302;4.634;2024-02-21T01:22:06;18.75;;;4.28;;
56653;SDS011;45096;52.302;4.634;2024-02-21T01:24:32;19.60;;;4.10;;
56653;SDS011;45096;52.302;4.634;2024-02-21T01:26:59;15.02;;;4.78;;
56653;SDS011;45096;52.302;4.634;2024-02-21T01:29:24;18.88;;;3.95;;
56653;SDS011;45096;52.302;4.634;2024-02-21T01:31:49;18.73;;;4.53;;
56653;SDS011;45096;52.302;4.634;2024-02-21T01:34:15;17.98;;;4.22;;
56653;SDS011;45096;52.302;4.634;2024-02-21T01:36:40;13.00;;;3.80;;
56653;SDS011;45096;52.302;4.634;2024-02-21T01:39:06;23.10;;;5.43;;
56653;SDS011;45096;52.302;4.634;2024-02-21T01:41:31;19.98;;;4.45;;
56653;SDS011;45096;52.302;4.634;2024-02-21T01:43:58;14.93;;;4.28;;
56653;SDS011;45096;52.302;4.634;2024-02-21T01:46:23;18.40;;;4.38;;
56653;SDS011;45096;52.302;4.634;2024-02-21T01:48:49;19.90;;;4.82;;
56653;SDS011;45096;52.302;4.634;2024-02-21T01:51:14;16.83;;;4.03;;
56653;SDS011;45096;52.302;4.634;2024-02-21T01:53:42;13.88;;;4.90;;
56653;SDS011;45096;52.302;4.634;2024-02-21T01:56:08;17.55;;;3.50;;
56653;SDS011;45096;52.302;4.634;2024-02-21T01:58:34;15.95;;;3.35;;
56653;SDS011;45096;52.302;4.634;2024-02-21T02:01:02;19.40;;;4.93;;
56653;SDS011;45096;52.302;4.634;2024-02-21T02:03:28;24.73;;;4.57;;
56653;SDS011;45096;52.302;4.634;2024-02-21T02:05:53;15.50;;;3.80;;
56653;SDS011;45096;52.302;4.634;2024-02-21T02:08:19;19.80;;;4.55;;
56653;SDS011;45096;52.302;4.634;2024-02-21T02:10:45;17.10;;;3.75;;
56653;SDS011;45096;52.302;4.634;2024-02-21T02:13:11;22.02;;;4.35;;
56653;SDS011;45096;52.302;4.634;2024-02-21T02:15:40;16.95;;;3.92;;
56653;SDS011;45096;52.302;4.634;2024-02-21T02:18:07;17.48;;;3.72;;
56653;SDS011;45096;52.302;4.634;2024-02-21T02:20:32;15.05;;;3.72;;
56653;SDS011;45096;52.302;4.634;2024-02-21T02:26:03;12.98;;;3.53;;
56653;SDS011;45096;52.302;4.634;2024-02-21T02:28:28;20.65;;;4.57;;
56653;SDS011;45096;52.302;4.634;2024-02-21T02:30:54;16.52;;;4.30;;
56653;SDS011;45096;52.302;4.634;2024-02-21T02:33:19;20.70;;;4.50;;
56653;SDS011;45096;52.302;4.634;2024-02-21T02:35:45;15.63;;;4.13;;
56653;SDS011;45096;52.302;4.634;2024-02-21T02:38:11;15.88;;;3.67;;
56653;SDS011;45096;52.302;4.634;2024-02-21T02:40:38;19.52;;;5.47;;
56653;SDS011;45096;52.302;4.634;2024-02-21T02:43:04;18.80;;;4.22;;
56653;SDS011;45096;52.302;4.634;2024-02-21T02:45:29;14.25;;;3.97;;
56653;SDS011;45096;52.302;4.634;2024-02-21T02:47:55;17.50;;;4.32;;
56653;SDS011;45096;52.302;4.634;2024-02-21T02:50:21;25.45;;;4.82;;
56653;SDS011;45096;52.302;4.634;2024-02-21T02:52:46;17.50;;;4.38;;
56653;SDS011;45096;52.302;4.634;2024-02-21T02:55:11;17.17;;;4.22;;
56653;SDS011;45096;52.302;4.634;2024-02-21T02:57:38;20.35;;;4.30;;
56653;SDS011;45096;52.302;4.634;2024-02-21T03:00:04;22.30;;;3.92;;
56653;SDS011;45096;52.302;4.634;2024-02-21T03:02:30;17.83;;;4.03;;
56653;SDS011;45096;52.302;4.634;2024-02-21T03:04:56;23.70;;;4.57;;
56653;SDS011;45096;52.302;4.634;2024-02-21T03:07:21;13.55;;;4.60;;
56653;SDS011;45096;52.302;4.634;2024-02-21T03:09:46;14.57;;;3.60;;
56653;SDS011;45096;52.302;4.634;2024-02-21T03:12:12;17.83;;;3.75;;
56653;SDS011;45096;52.302;4.634;2024-02-21T03:14:39;17.58;;;4.22;;
56653;SDS011;45096;52.302;4.634;2024-02-21T03:17:04;22.17;;;4.68;;
56653;SDS011;45096;52.302;4.634;2024-02-21T03:19:29;13.63;;;4.00;;
56653;SDS011;45096;52.302;4.634;2024-02-21T03:21:55;14.45;;;3.95;;
56653;SDS011;45096;52.302;4.634;2024-02-21T03:24:20;16.02;;;4.35;;
56653;SDS011;45096;52.302;4.634;2024-02-21T03:26:46;22.73;;;4.82;;
56653;SDS011;45096;52.302;4.634;2024-02-21T03:29:12;21.10;;;3.90;;
56653;SDS011;45096;52.302;4.634;2024-02-21T03:31:39;13.70;;;3.85;;
56653;SDS011;45096;52.302;4.634;2024-02-21T03:34:04;14.55;;;3.65;;
56653;SDS011;45096;52.302;4.634;2024-02-21T03:36:30;17.20;;;4.10;;
56653;SDS011;45096;52.302;4.634;2024-02-21T03:38:55;13.45;;;4.03;;
56653;SDS011;45096;52.302;4.634;2024-02-21T03:41:21;19.55;;;4.78;;
56653;SDS011;45096;52.302;4.634;2024-02-21T03:43:46;13.88;;;3.95;;
56653;SDS011;45096;52.302;4.634;2024-02-21T03:46:11;12.52;;;3.80;;
56653;SDS011;45096;52.302;4.634;2024-02-21T03:48:38;18.48;;;4.50;;
56653;SDS011;45096;52.302;4.634;2024-02-21T03:51:04;23.45;;;4.68;;
56653;SDS011;45096;52.302;4.634;2024-02-21T03:53:29;16.90;;;4.18;;
56653;SDS011;45096;52.302;4.634;2024-02-21T03:55:55;13.98;;;4.00;;
56653;SDS011;45096;52.302;4.634;2024-02-21T03:58:20;12.05;;;3.67;;
56653;SDS011;45096;52.302;4.634;2024-02-21T04:00:46;14.13;;;3.90;;
56653;SDS011;45096;52.302;4.634;2024-02-21T04:03:11;16.63;;;3.90;;
56653;SDS011;45096;52.302;4.634;2024-02-21T04:05:38;10.32;;;4.15;;
56653;SDS011;45096;52.302;4.634;2024-02-21T04:08:04;15.27;;;3.47;;
56653;SDS011;45096;52.302;4.634;2024-02-21T04:10:30;12.90;;;3.20;;
56653;SDS011;45096;52.302;4.634;2024-02-21T04:12:55;19.50;;;3.60;;
56653;SDS011;45096;52.302;4.634;2024-02-21T04:15:20;11.73;;;3.60;;
56653;SDS011;45096;52.302;4.634;2024-02-21T04:17:46;13.02;;;3.85;;
56653;SDS011;45096;52.302;4.634;2024-02-21T04:20:13;11.48;;;3.92;;
56653;SDS011;45096;52.302;4.634;2024-02-21T04:22:42;17.77;;;3.88;;
56653;SDS011;45096;52.302;4.634;2024-02-21T04:25:08;14.63;;;4.55;;
56653;SDS011;45096;52.302;4.634;2024-02-21T04:27:33;22.17;;;4.25;;
56653;SDS011;45096;52.302;4.634;2024-02-21T04:29:59;14.32;;;4.03;;
56653;SDS011;45096;52.302;4.634;2024-02-21T04:32:24;10.93;;;3.38;;
56653;SDS011;45096;52.302;4.634;2024-02-21T04:34:49;12.35;;;4.07;;
56653;SDS011;45096;52.302;4.634;2024-02-21T04:37:15;15.02;;;4.20;;
56653;SDS011;45096;52.302;4.634;2024-02-21T04:39:42;19.58;;;4.18;;
56653;SDS011;45096;52.302;4.634;2024-02-21T04:42:07;18.40;;;4.72;;
56653;SDS011;45096;52.302;4.634;2024-02-21T04:44:32;18.27;;;3.55;;
56653;SDS011;45096;52.302;4.634;2024-02-21T04:46:58;16.13;;;4.93;;
56653;SDS011;45096;52.302;4.634;2024-02-21T04:49:23;13.18;;;4.75;;
56653;SDS011;45096;52.302;4.634;2024-02-21T04:51:49;19.42;;;4.45;;
56653;SDS011;45096;52.302;4.634;2024-02-21T04:54:14;13.48;;;4.20;;
56653;SDS011;45096;52.302;4.634;2024-02-21T04:56:41;15.55;;;4.05;;
56653;SDS011;45096;52.302;4.634;2024-02-21T04:59:06;10.30;;;3.70;;
56653;SDS011;45096;52.302;4.634;2024-02-21T05:01:32;14.13;;;3.75;;
56653;SDS011;45096;52.302;4.634;2024-02-21T05:03:57;9.70;;;3.78;;
56653;SDS011;45096;52.302;4.634;2024-02-21T05:06:22;12.77;;;4.10;;
56653;SDS011;45096;52.302;4.634;2024-02-21T05:08:48;12.93;;;4.65;;
56653;SDS011;45096;52.302;4.634;2024-02-21T05:11:13;14.60;;;3.50;;
56653;SDS011;45096;52.302;4.634;2024-02-21T05:13:40;13.68;;;4.35;;
56653;SDS011;45096;52.302;4.634;2024-02-21T05:16:06;16.10;;;4.32;;
56653;SDS011;45096;52.302;4.634;2024-02-21T05:18:32;11.13;;;3.55;;
56653;SDS011;45096;52.302;4.634;2024-02-21T05:20:58;10.90;;;4.10;;
56653;SDS011;45096;52.302;4.634;2024-02-21T05:23:23;13.07;;;3.58;;
56653;SDS011;45096;52.302;4.634;2024-02-21T05:25:52;12.00;;;3.83;;
56653;SDS011;45096;52.302;4.634;2024-02-21T05:28:17;15.10;;;5.50;;
56653;SDS011;45096;52.302;4.634;2024-02-21T05:30:44;19.67;;;5.57;;
56653;SDS011;45096;52.302;4.634;2024-02-21T05:33:09;16.17;;;5.85;;
56653;SDS011;45096;52.302;4.634;2024-02-21T05:35:35;13.98;;;4.95;;
56653;SDS011;45096;52.302;4.634;2024-02-21T05:38:00;14.35;;;4.75;;
56653;SDS011;45096;52.302;4.634;2024-02-21T05:40:26;11.85;;;4.70;;
56653;SDS011;45096;52.302;4.634;2024-02-21T05:42:51;15.98;;;4.95;;
56653;SDS011;45096;52.302;4.634;2024-02-21T05:45:17;9.20;;;4.68;;
56653;SDS011;45096;52.302;4.634;2024-02-21T05:47:43;10.75;;;4.45;;
56653;SDS011;45096;52.302;4.634;2024-02-21T05:50:09;14.90;;;4.95;;
56653;SDS011;45096;52.302;4.634;2024-02-21T05:52:35;9.85;;;5.10;;
56653;SDS011;45096;52.302;4.634;2024-02-21T05:55:00;16.88;;;5.85;;
56653;SDS011;45096;52.302;4.634;2024-02-21T05:57:26;13.57;;;5.32;;
56653;SDS011;45096;52.302;4.634;2024-02-21T05:59:51;14.90;;;5.07;;
56653;SDS011;45096;52.302;4.634;2024-02-21T06:02:17;13.27;;;6.63;;
56653;SDS011;45096;52.302;4.634;2024-02-21T06:04:43;14.05;;;6.57;;
56653;SDS011;45096;52.302;4.634;2024-02-21T06:07:09;16.27;;;6.07;;
56653;SDS011;45096;52.302;4.634;2024-02-21T06:09:34;15.18;;;4.88;;
56653;SDS011;45096;52.302;4.634;2024-02-21T06:12:00;11.23;;;4.97;;
56653;SDS011;45096;52.302;4.634;2024-02-21T06:14:25;10.85;;;5.38;;
56653;SDS011;45096;52.302;4.634;2024-02-21T06:16:51;15.75;;;6.18;;
56653;SDS011;45096;52.302;4.634;2024-02-21T06:19:16;13.50;;;5.97;;
56653;SDS011;45096;52.302;4.634;2024-02-21T06:21:43;10.30;;;7.15;;
56653;SDS011;45096;52.302;4.634;2024-02-21T06:24:08;11.90;;;8.38;;
56653;SDS011;45096;52.302;4.634;2024-02-21T06:26:34;18.25;;;7.60;;
56653;SDS011;45096;52.302;4.634;2024-02-21T06:28:59;13.25;;;7.82;;
56653;SDS011;45096;52.302;4.634;2024-02-21T06:31:24;12.63;;;7.97;;
56653;SDS011;45096;52.302;4.634;2024-02-21T06:33:50;15.57;;;7.68;;
56653;SDS011;45096;52.302;4.634;2024-02-21T06:36:15;14.25;;;8.48;;
56653;SDS011;45096;52.302;4.634;2024-02-21T06:38:42;9.88;;;7.60;;
56653;SDS011;45096;52.302;4.634;2024-02-21T06:41:14;13.32;;;8.85;;
56653;SDS011;45096;52.302;4.634;2024-02-21T06:43:40;15.73;;;8.65;;
56653;SDS011;45096;52.302;4.634;2024-02-21T06:46:05;14.53;;;9.47;;
56653;SDS011;45096;52.302;4.634;2024-02-21T06:48:30;12.50;;;7.78;;
56653;SDS011;45096;52.302;4.634;2024-02-21T06:50:56;11.60;;;8.50;;
56653;SDS011;45096;52.302;4.634;2024-02-21T06:53:21;16.40;;;9.40;;
56653;SDS011;45096;52.302;4.634;2024-02-21T06:55:48;16.80;;;9.60;;
56653;SDS011;45096;52.302;4.634;2024-02-21T06:58:13;13.40;;;9.15;;
56653;SDS011;45096;52.302;4.634;2024-02-21T07:00:39;14.82;;;8.93;;
56653;SDS011;45096;52.302;4.634;2024-02-21T07:03:04;18.15;;;8.32;;
56653;SDS011;45096;52.302;4.634;2024-02-21T07:05:30;13.82;;;10.15;;
56653;SDS011;45096;52.302;4.634;2024-02-21T07:07:55;20.95;;;9.40;;
56653;SDS011;45096;52.302;4.634;2024-02-21T07:10:20;16.60;;;10.02;;
56653;SDS011;45096;52.302;4.634;2024-02-21T07:12:47;15.70;;;10.68;;
56653;SDS011;45096;52.302;4.634;2024-02-21T07:15:13;15.02;;;10.60;;
56653;SDS011;45096;52.302;4.634;2024-02-21T07:17:38;13.00;;;9.60;;
56653;SDS011;45096;52.302;4.634;2024-02-21T07:20:04;13.60;;;10.50;;
56653;SDS011;45096;52.302;4.634;2024-02-21T07:22:30;15.75;;;10.45;;
56653;SDS011;45096;52.302;4.634;2024-02-21T07:24:55;15.85;;;10.82;;
56653;SDS011;45096;52.302;4.634;2024-02-21T07:27:21;15.60;;;10.85;;
56653;SDS011;45096;52.302;4.634;2024-02-21T07:29:47;14.40;;;10.57;;
56653;SDS011;45096;52.302;4.634;2024-02-21T07:32:13;14.98;;;10.18;;
56653;SDS011;45096;52.302;4.634;2024-02-21T07:34:38;15.07;;;12.00;;
56653;SDS011;45096;52.302;4.634;2024-02-21T07:37:04;17.08;;;10.90;;
56653;SDS011;45096;52.302;4.634;2024-02-21T07:39:29;17.25;;;10.73;;
56653;SDS011;45096;52.302;4.634;2024-02-21T07:41:54;14.98;;;11.13;;
56653;SDS011;45096;52.302;4.634;2024-02-21T07:44:20;18.38;;;11.02;;
56653;SDS011;45096;52.302;4.634;2024-02-21T07:46:47;19.35;;;12.23;;
56653;SDS011;45096;52.302;4.634;2024-02-21T07:49:12;15.88;;;11.35;;
56653;SDS011;45096;52.302;4.634;2024-02-21T07:51:37;19.23;;;13.02;;
56653;SDS011;45096;52.302;4.634;2024-02-21T07:54:03;16.42;;;11.65;;
56653;SDS011;45096;52.302;4.634;2024-02-21T07:56:28;18.20;;;12.73;;
56653;SDS011;45096;52.302;4.634;2024-02-21T07:58:54;20.67;;;12.98;;
56653;SDS011;45096;52.302;4.634;2024-02-21T08:01:19;19.80;;;13.63;;
56653;SDS011;45096;52.302;4.634;2024-02-21T08:03:46;21.90;;;12.77;;
56653;SDS011;45096;52.302;4.634;2024-02-21T08:06:12;20.30;;;12.98;;
56653;SDS011;45096;52.302;4.634;2024-02-21T08:08:37;18.77;;;12.45;;
56653;SDS011;45096;52.302;4.634;2024-02-21T08:11:03;20.85;;;12.45;;
56653;SDS011;45096;52.302;4.634;2024-02-21T08:13:28;18.65;;;12.30;;
56653;SDS011;45096;52.302;4.634;2024-02-21T08:15:54;20.00;;;12.57;;
56653;SDS011;45096;52.302;4.634;2024-02-21T08:18:19;18.83;;;12.15;;
56653;SDS011;45096;52.302;4.634;2024-02-21T08:20:46;21.58;;;12.40;;
56653;SDS011;45096;52.302;4.634;2024-02-21T08:23:11;18.90;;;11.65;;
56653;SDS011;45096;52.302;4.634;2024-02-21T08:25:37;21.55;;;12.65;;
56653;SDS011;45096;52.302;4.634;2024-02-21T08:28:02;17.10;;;11.68;;
56653;SDS011;45096;52.302;4.634;2024-02-21T08:30:28;17.55;;;11.15;;
56653;SDS011;45096;52.302;4.634;2024-02-21T08:32:53;19.42;;;13.10;;
56653;SDS011;45096;52.302;4.634;2024-02-21T08:35:19;20.55;;;12.38;;
56653;SDS011;45096;52.302;4.634;2024-02-21T08:37:46;17.48;;;12.23;;
56653;SDS011;45096;52.302;4.634;2024-02-21T08:40:11;18.60;;;12.40;;
56653;SDS011;45096;52.302;4.634;2024-02-21T08:42:38;16.45;;;12.10;;
56653;SDS011;45096;52.302;4.634;2024-02-21T08:45:04;18.20;;;12.50;;
56653;SDS011;45096;52.302;4.634;2024-02-21T08:47:30;20.42;;;12.25;;
56653;SDS011;45096;52.302;4.634;2024-02-21T08:49:56;16.75;;;12.23;;
56653;SDS011;45096;52.302;4.634;2024-02-21T08:52:21;24.15;;;13.30;;
56653;SDS011;45096;52.302;4.634;2024-02-21T08:54:48;20.25;;;12.65;;
56653;SDS011;45096;52.302;4.634;2024-02-21T08:57:13;24.60;;;13.73;;
56653;SDS011;45096;52.302;4.634;2024-02-21T08:59:39;19.25;;;12.50;;
56653;SDS011;45096;52.302;4.634;2024-02-21T09:02:04;23.05;;;14.73;;
56653;SDS011;45096;52.302;4.634;2024-02-21T09:04:30;23.02;;;13.73;;
56653;SDS011;45096;52.302;4.634;2024-02-21T09:06:55;22.70;;;14.00;;
56653;SDS011;45096;52.302;4.634;2024-02-21T09:09:20;21.63;;;15.60;;
56653;SDS011;45096;52.302;4.634;2024-02-21T09:11:47;22.38;;;14.93;;
56653;SDS011;45096;52.302;4.634;2024-02-21T09:14:13;26.65;;;15.88;;
56653;SDS011;45096;52.302;4.634;2024-02-21T09:16:38;20.55;;;14.02;;
56653;SDS011;45096;52.302;4.634;2024-02-21T09:19:03;23.23;;;15.00;;
56653;SDS011;45096;52.302;4.634;2024-02-21T09:21:29;18.65;;;14.55;;
56653;SDS011;45096;52.302;4.634;2024-02-21T09:23:54;27.55;;;15.10;;
56653;SDS011;45096;52.302;4.634;2024-02-21T09:26:20;18.08;;;13.75;;
56653;SDS011;45096;52.302;4.634;2024-02-21T09:28:46;21.25;;;13.60;;
56653;SDS011;45096;52.302;4.634;2024-02-21T09:31:12;25.10;;;15.75;;
56653;SDS011;45096;52.302;4.634;2024-02-21T09:33:37;20.55;;;14.38;;
56653;SDS011;45096;52.302;4.634;2024-02-21T09:36:03;23.63;;;13.65;;
56653;SDS011;45096;52.302;4.634;2024-02-21T09:38:29;18.52;;;12.88;;
56653;SDS011;45096;52.302;4.634;2024-02-21T09:40:55;24.20;;;13.65;;
56653;SDS011;45096;52.302;4.634;2024-02-21T09:43:24;26.10;;;17.75;;
56653;SDS011;45096;52.302;4.634;2024-02-21T09:45:50;26.10;;;16.85;;
56653;SDS011;45096;52.302;4.634;2024-02-21T09:48:23;24.27;;;16.58;;
56653;SDS011;45096;52.302;4.634;2024-02-21T09:50:52;21.95;;;15.98;;
56653;SDS011;45096;52.302;4.634;2024-02-21T09:53:20;22.30;;;15.95;;
56653;SDS011;45096;52.302;4.634;2024-02-21T09:55:45;21.92;;;16.48;;
56653;SDS011;45096;52.302;4.634;2024-02-21T09:58:11;23.42;;;17.05;;
56653;SDS011;45096;52.302;4.634;2024-02-21T10:00:37;22.70;;;15.30;;
56653;SDS011;45096;52.302;4.634;2024-02-21T10:03:04;23.55;;;16.52;;
56653;SDS011;45096;52.302;4.634;2024-02-21T10:05:29;22.08;;;14.77;;
56653;SDS011;45096;52.302;4.634;2024-02-21T10:07:55;20.25;;;15.35;;
56653;SDS011;45096;52.302;4.634;2024-02-21T10:10:20;20.40;;;15.65;;
56653;SDS011;45096;52.302;4.634;2024-02-21T10:12:49;22.10;;;15.00;;
56653;SDS011;45096;52.302;4.634;2024-02-21T10:15:19;22.45;;;13.60;;
56653;SDS011;45096;52.302;4.634;2024-02-21T10:17:45;24.85;;;13.70;;
56653;SDS011;45096;52.302;4.634;2024-02-21T10:20:13;18.38;;;13.93;;
56653;SDS011;45096;52.302;4.634;2024-02-21T10:22:38;19.25;;;12.93;;
56653;SDS011;45096;52.302;4.634;2024-02-21T10:25:06;18.02;;;13.00;;
56653;SDS011;45096;52.302;4.634;2024-02-21T10:27:32;17.75;;;12.48;;
56653;SDS011;45096;52.302;4.634;2024-02-21T10:29:57;18.20;;;12.80;;
56653;SDS011;45096;52.302;4.634;2024-02-21T10:32:23;15.93;;;12.25;;
56653;SDS011;45096;52.302;4.634;2024-02-21T10:34:48;16.35;;;11.95;;
56653;SDS011;45096;52.302;4.634;2024-02-21T10:37:15;15.43;;;11.35;;
56653;SDS011;45096;52.302;4.634;2024-02-21T10:39:41;17.80;;;12.25;;
56653;SDS011;45096;52.302;4.634;2024-02-21T10:42:07;17.85;;;11.63;;
56653;SDS011;45096;52.302;4.634;2024-02-21T10:44:33;21.63;;;12.48;;
56653;SDS011;45096;52.302;4.634;2024-02-21T10:46:59;14.85;;;11.77;;
56653;SDS011;45096;52.302;4.634;2024-02-21T10:49:25;16.73;;;10.90;;
56653;SDS011;45096;52.302;4.634;2024-02-21T10:51:52;15.38;;;9.63;;
56653;SDS011;45096;52.302;4.634;2024-02-21T10:54:25;15.77;;;10.27;;
56653;SDS011;45096;52.302;4.634;2024-02-21T10:56:57;14.60;;;10.77;;
56653;SDS011;45096;52.302;4.634;2024-02-21T10:59:23;20.52;;;11.13;;
56653;SDS011;45096;52.302;4.634;2024-02-21T11:01:49;20.15;;;12.07;;
56653;SDS011;45096;52.302;4.634;2024-02-21T11:04:14;17.27;;;11.38;;
56653;SDS011;45096;52.302;4.634;2024-02-21T11:06:40;17.92;;;11.95;;
56653;SDS011;45096;52.302;4.634;2024-02-21T11:09:06;20.25;;;12.50;;
56653;SDS011;45096;52.302;4.634;2024-02-21T11:11:34;17.63;;;12.88;;
56653;SDS011;45096;52.302;4.634;2024-02-21T11:14:06;15.63;;;11.82;;
56653;SDS011;45096;52.302;4.634;2024-02-21T11:16:35;17.52;;;12.35;;
56653;SDS011;45096;52.302;4.634;2024-02-21T11:19:04;15.77;;;12.60;;
56653;SDS011;45096;52.302;4.634;2024-02-21T11:21:32;13.38;;;10.48;;
56653;SDS011;45096;52.302;4.634;2024-02-21T11:23:58;14.45;;;11.00;;
56653;SDS011;45096;52.302;4.634;2024-02-21T11:26:23;16.73;;;10.63;;
56653;SDS011;45096;52.302;4.634;2024-02-21T11:28:57;16.60;;;10.73;;
56653;SDS011;45096;52.302;4.634;2024-02-21T11:31:23;13.57;;;10.63;;
56653;SDS011;45096;52.302;4.634;2024-02-21T11:33:48;16.08;;;11.30;;
56653;SDS011;45096;52.302;4.634;2024-02-21T11:36:22;11.93;;;10.55;;
56653;SDS011;45096;52.302;4.634;2024-02-21T11:38:49;16.13;;;11.30;;
56653;SDS011;45096;52.302;4.634;2024-02-21T11:41:14;12.25;;;10.38;;
56653;SDS011;45096;52.302;4.634;2024-02-21T11:43:39;13.30;;;10.93;;
56653;SDS011;45096;52.302;4.634;2024-02-21T11:46:06;14.20;;;11.35;;
56653;SDS011;45096;52.302;4.634;2024-02-21T11:48:32;14.55;;;11.65;;
56653;SDS011;45096;52.302;4.634;2024-02-21T11:50:57;16.35;;;11.57;;
56653;SDS011;45096;52.302;4.634;2024-02-21T11:53:23;14.60;;;11.38;;
56653;SDS011;45096;52.302;4.634;2024-02-21T11:55:49;16.77;;;11.00;;
56653;SDS011;45096;52.302;4.634;2024-02-21T11:58:15;14.50;;;10.98;;
56653;SDS011;45096;52.302;4.634;2024-02-21T12:00:40;15.23;;;11.65;;
56653;SDS011;45096;52.302;4.634;2024-02-21T12:03:07;15.30;;;11.30;;
56653;SDS011;45096;52.302;4.634;2024-02-21T12:05:32;14.52;;;11.05;;
56653;SDS011;45096;52.302;4.634;2024-02-21T12:07:58;19.17;;;12.20;;
56653;SDS011;45096;52.302;4.634;2024-02-21T12:10:24;15.50;;;11.77;;
56653;SDS011;45096;52.302;4.634;2024-02-21T12:12:51;20.30;;;14.25;;
56653;SDS011;45096;52.302;4.634;2024-02-21T12:15:16;17.38;;;14.10;;
56653;SDS011;45096;52.302;4.634;2024-02-21T12:17:43;17.98;;;12.05;;
56653;SDS011;45096;52.302;4.634;2024-02-21T12:20:10;17.17;;;11.77;;
56653;SDS011;45096;52.302;4.634;2024-02-21T12:22:36;15.68;;;11.75;;
56653;SDS011;45096;52.302;4.634;2024-02-21T12:25:02;13.20;;;11.80;;
56653;SDS011;45096;52.302;4.634;2024-02-21T12:27:28;13.15;;;11.23;;
56653;SDS011;45096;52.302;4.634;2024-02-21T12:29:53;15.80;;;12.30;;
56653;SDS011;45096;52.302;4.634;2024-02-21T12:32:19;12.60;;;11.02;;
56653;SDS011;45096;52.302;4.634;2024-02-21T12:34:44;13.00;;;11.60;;
56653;SDS011;45096;52.302;4.634;2024-02-21T12:37:11;13.95;;;10.90;;
56653;SDS011;45096;52.302;4.634;2024-02-21T12:39:37;14.45;;;10.95;;
56653;SDS011;45096;52.302;4.634;2024-02-21T12:42:02;13.43;;;10.32;;
56653;SDS011;45096;52.302;4.634;2024-02-21T12:44:28;11.98;;;10.57;;
56653;SDS011;45096;52.302;4.634;2024-02-21T12:46:54;14.38;;;11.15;;
56653;SDS011;45096;52.302;4.634;2024-02-21T12:49:19;12.00;;;10.48;;
56653;SDS011;45096;52.302;4.634;2024-02-21T12:51:44;11.02;;;9.90;;
56653;SDS011;45096;52.302;4.634;2024-02-21T12:54:11;11.55;;;10.05;;
56653;SDS011;45096;52.302;4.634;2024-02-21T12:56:37;10.55;;;9.50;;
56653;SDS011;45096;52.302;4.634;2024-02-21T12:59:02;9.80;;;8.80;;
56653;SDS011;45096;52.302;4.634;2024-02-21T13:01:28;12.95;;;9.52;;
56653;SDS011;45096;52.302;4.634;2024-02-21T13:03:53;10.30;;;9.05;;
56653;SDS011;45096;52.302;4.634;2024-02-21T13:06:19;13.25;;;9.27;;
56653;SDS011;45096;52.302;4.634;2024-02-21T13:08:44;12.57;;;9.18;;
56653;SDS011;45096;52.302;4.634;2024-02-21T13:11:11;17.38;;;10.35;;
56653;SDS011;45096;52.302;4.634;2024-02-21T13:13:37;10.90;;;9.77;;
56653;SDS011;45096;52.302;4.634;2024-02-21T13:16:03;11.05;;;9.95;;
56653;SDS011;45096;52.302;4.634;2024-02-21T13:18:29;13.23;;;10.18;;
56653;SDS011;45096;52.302;4.634;2024-02-21T13:20:54;15.77;;;10.20;;
56653;SDS011;45096;52.302;4.634;2024-02-21T13:23:20;12.68;;;10.02;;
56653;SDS011;45096;52.302;4.634;2024-02-21T13:25:45;12.23;;;9.43;;
56653;SDS011;45096;52.302;4.634;2024-02-21T13:28:12;11.82;;;10.50;;
56653;SDS011;45096;52.302;4.634;2024-02-21T13:30:37;12.05;;;10.77;;
56653;SDS011;45096;52.302;4.634;2024-02-21T13:33:03;11.88;;;9.85;;
56653;SDS011;45096;52.302;4.634;2024-02-21T13:35:30;13.68;;;10.38;;
56653;SDS011;45096;52.302;4.634;2024-02-21T13:37:56;11.35;;;10.15;;
56653;SDS011;45096;52.302;4.634;2024-02-21T13:40:21;14.20;;;10.48;;
56653;SDS011;45096;52.302;4.634;2024-02-21T13:42:47;12.15;;;10.88;;
56653;SDS011;45096;52.302;4.634;2024-02-21T13:45:14;12.27;;;10.98;;
56653;SDS011;45096;52.302;4.634;2024-02-21T13:47:39;12.98;;;10.70;;
56653;SDS011;45096;52.302;4.634;2024-02-21T13:50:07;13.73;;;10.65;;
56653;SDS011;45096;52.302;4.634;2024-02-21T13:52:33;14.68;;;11.05;;
56653;SDS011;45096;52.302;4.634;2024-02-21T13:54:58;17.33;;;12.10;;
56653;SDS011;45096;52.302;4.634;2024-02-21T13:57:24;12.73;;;11.43;;
56653;SDS011;45096;52.302;4.634;2024-02-21T13:59:49;14.38;;;10.20;;
56653;SDS011;45096;52.302;4.634;2024-02-21T14:02:16;16.20;;;11.32;;
56653;SDS011;45096;52.302;4.634;2024-02-21T14:04:41;15.10;;;10.85;;
56653;SDS011;45096;52.302;4.634;2024-02-21T14:07:07;14.45;;;11.40;;
56653;SDS011;45096;52.302;4.634;2024-02-21T14:09:32;15.23;;;10.55;;
56653;SDS011;45096;52.302;4.634;2024-02-21T14:11:57;18.77;;;12.40;;
56653;SDS011;45096;52.302;4.634;2024-02-21T14:14:23;12.32;;;10.50;;
56653;SDS011;45096;52.302;4.634;2024-02-21T14:16:48;12.95;;;11.18;;
56653;SDS011;45096;52.302;4.634;2024-02-21T14:19:15;13.70;;;10.98;;
56653;SDS011;45096;52.302;4.634;2024-02-21T14:21:40;13.07;;;10.55;;
56653;SDS011;45096;52.302;4.634;2024-02-21T14:24:06;14.23;;;10.43;;